createdAt,value
2023-04-16T00:01:40.703Z,14.27
2023-04-16T00:04:08.252Z,14.27
2023-04-16T00:06:35.025Z,13.50
2023-04-16T00:09:01.754Z,14.02
2023-04-16T00:11:29.706Z,13.95
2023-04-16T00:13:56.294Z,15.20
2023-04-16T00:16:24.597Z,15.37
2023-04-16T00:18:51.308Z,15.48
2023-04-16T00:21:17.869Z,15.45
2023-04-16T00:23:44.376Z,14.68
2023-04-16T00:26:10.985Z,14.88
2023-04-16T00:28:38.878Z,15.40
2023-04-16T00:31:05.407Z,15.25
2023-04-16T00:33:35.102Z,15.98
2023-04-16T00:36:01.623Z,16.25
2023-04-16T00:38:28.221Z,16.10
2023-04-16T00:40:54.780Z,13.87
2023-04-16T00:43:23.296Z,16.17
2023-04-16T00:45:52.092Z,16.67
2023-04-16T00:48:20.719Z,15.50
2023-04-16T00:50:48.261Z,16.92
2023-04-16T00:53:14.939Z,16.63
2023-04-16T00:55:41.526Z,16.98
2023-04-16T00:58:08.162Z,17.55
2023-04-16T01:00:34.709Z,17.13
2023-04-16T01:03:05.353Z,17.10
2023-04-16T01:05:32.005Z,16.10
2023-04-16T01:08:01.757Z,16.98
2023-04-16T01:10:28.305Z,17.25
2023-04-16T01:12:54.973Z,16.77
2023-04-16T01:15:21.472Z,16.23
2023-04-16T01:17:48.367Z,16.43
2023-04-16T01:20:16.287Z,16.83
2023-04-16T01:22:44.830Z,17.30
2023-04-16T01:25:14.679Z,16.85
2023-04-16T01:27:41.467Z,17.10
2023-04-16T01:30:08.704Z,15.97
2023-04-16T01:32:35.797Z,17.02
2023-04-16T01:35:05.468Z,17.13
2023-04-16T01:37:32.215Z,16.50
2023-04-16T01:40:00.155Z,16.88
2023-04-16T01:42:26.711Z,15.70
2023-04-16T01:44:53.245Z,17.15
2023-04-16T01:47:20.015Z,17.08
2023-04-16T01:49:46.628Z,18.02
2023-04-16T01:52:13.413Z,17.52
2023-04-16T01:54:39.982Z,16.93
2023-04-16T01:57:07.898Z,17.55
2023-04-16T01:59:34.611Z,18.42
2023-04-16T02:02:02.232Z,17.67
2023-04-16T02:04:28.978Z,17.20
2023-04-16T02:06:55.478Z,16.37
2023-04-16T02:09:22.115Z,16.80
2023-04-16T02:11:48.597Z,16.67
2023-04-16T02:14:16.476Z,16.55
2023-04-16T02:16:43.067Z,17.48
2023-04-16T02:19:09.913Z,18.00
2023-04-16T02:21:36.517Z,17.05
2023-04-16T02:24:03.530Z,18.35
2023-04-16T02:26:30.116Z,17.98
2023-04-16T02:28:56.704Z,16.52
2023-04-16T02:31:24.675Z,16.87
2023-04-16T02:33:51.365Z,17.83
2023-04-16T02:36:17.847Z,18.08
2023-04-16T02:38:44.496Z,18.13
2023-04-16T02:41:11.168Z,16.65
2023-04-16T02:43:38.151Z,16.93
2023-04-16T02:46:04.778Z,16.55
2023-04-16T02:48:33.086Z,18.58
2023-04-16T02:50:59.813Z,17.85
2023-04-16T02:53:26.314Z,17.85
2023-04-16T02:55:53.956Z,18.47
2023-04-16T02:58:21.344Z,17.52
2023-04-16T03:00:48.452Z,18.13
2023-04-16T03:03:15.141Z,17.92
2023-04-16T03:05:43.241Z,18.02
2023-04-16T03:08:09.823Z,17.13
2023-04-16T03:10:36.698Z,17.80
2023-04-16T03:13:03.799Z,17.77
2023-04-16T03:15:31.110Z,17.77
2023-04-16T03:17:57.796Z,18.60
2023-04-16T03:20:24.526Z,17.57
2023-04-16T03:22:52.608Z,18.80
2023-04-16T03:25:19.310Z,18.13
2023-04-16T03:27:45.868Z,19.10
2023-04-16T03:30:13.248Z,19.45
2023-04-16T03:32:40.579Z,18.67
2023-04-16T03:35:08.281Z,19.30
2023-04-16T03:37:35.229Z,18.58
2023-04-16T03:40:03.211Z,18.90
2023-04-16T03:42:29.748Z,18.88
2023-04-16T03:44:56.346Z,18.83
2023-04-16T03:47:23.218Z,17.08
2023-04-16T03:49:50.156Z,18.23
2023-04-16T03:52:16.718Z,18.45
2023-04-16T03:54:43.346Z,18.75
2023-04-16T03:57:11.259Z,18.20
2023-04-16T03:59:37.755Z,18.48
2023-04-16T04:02:04.521Z,18.95
2023-04-16T04:04:31.241Z,17.13
2023-04-16T04:06:58.107Z,18.20
2023-04-16T04:09:24.628Z,18.20
2023-04-16T04:11:51.157Z,18.27
2023-04-16T04:14:19.008Z,17.80
2023-04-16T04:16:45.798Z,17.75
2023-04-16T04:19:12.581Z,16.77
2023-04-16T04:21:39.194Z,16.57
2023-04-16T04:24:05.802Z,17.02
2023-04-16T04:26:32.409Z,16.38
2023-04-16T04:28:59.198Z,16.33
2023-04-16T04:31:27.212Z,16.48
2023-04-16T04:33:53.950Z,16.70
2023-04-16T04:36:20.467Z,15.65
2023-04-16T04:38:47.028Z,17.15
2023-04-16T04:41:13.612Z,16.02
2023-04-16T04:43:40.132Z,16.35
2023-04-16T04:46:06.730Z,15.23
2023-04-16T04:48:34.634Z,16.08
2023-04-16T04:51:02.443Z,15.70
2023-04-16T04:53:30.778Z,16.33
2023-04-16T04:56:01.733Z,17.67
2023-04-16T04:58:35.650Z,17.63
2023-04-16T05:01:02.332Z,17.70
2023-04-16T05:03:29.135Z,17.92
2023-04-16T05:05:57.058Z,17.90
2023-04-16T05:08:23.660Z,17.45
2023-04-16T05:10:50.168Z,18.67
2023-04-16T05:13:16.734Z,18.92
2023-04-16T05:15:43.246Z,20.05
2023-04-16T05:18:09.738Z,21.02
2023-04-16T05:20:36.318Z,20.63
2023-04-16T05:23:04.206Z,20.90
2023-04-16T05:25:30.776Z,21.88
2023-04-16T05:27:57.290Z,22.73
2023-04-16T05:30:23.852Z,22.15
2023-04-16T05:32:50.360Z,21.15
2023-04-16T05:35:17.624Z,20.87
2023-04-16T05:37:44.347Z,20.80
2023-04-16T05:40:14.164Z,23.52
2023-04-16T05:42:40.771Z,21.38
2023-04-16T05:45:08.502Z,22.35
2023-04-16T05:47:35.099Z,22.83
2023-04-16T05:50:01.773Z,22.58
2023-04-16T05:52:28.474Z,22.27
2023-04-16T05:54:54.980Z,21.17
2023-04-16T05:57:22.983Z,21.70
2023-04-16T05:59:49.592Z,21.53
2023-04-16T06:02:16.282Z,20.98
2023-04-16T06:04:43.050Z,21.55
2023-04-16T06:07:09.766Z,21.70
2023-04-16T06:09:36.366Z,21.58
2023-04-16T06:12:03.353Z,22.13
2023-04-16T06:14:31.310Z,24.02
2023-04-16T06:16:57.931Z,23.80
2023-04-16T06:19:24.588Z,22.80
2023-04-16T06:21:51.173Z,22.02
2023-04-16T06:24:17.716Z,22.27
2023-04-16T06:26:44.374Z,21.85
2023-04-16T06:29:11.468Z,22.40
2023-04-16T06:31:39.519Z,20.23
2023-04-16T06:34:06.056Z,21.83
2023-04-16T06:36:32.585Z,21.03
2023-04-16T06:38:59.177Z,21.42
2023-04-16T06:41:25.755Z,22.35
2023-04-16T06:43:52.433Z,20.80
2023-04-16T06:46:18.961Z,21.15
2023-04-16T06:48:47.000Z,19.97
2023-04-16T06:51:13.606Z,21.30
2023-04-16T06:53:40.284Z,22.27
2023-04-16T06:56:07.416Z,20.40
2023-04-16T06:58:33.966Z,21.38
2023-04-16T07:01:00.650Z,20.87
2023-04-16T07:03:27.380Z,19.75
2023-04-16T07:05:55.716Z,20.75
2023-04-16T07:08:22.245Z,19.88
2023-04-16T07:10:48.768Z,20.35
2023-04-16T07:13:15.347Z,18.87
2023-04-16T07:15:41.861Z,19.65
2023-04-16T07:18:08.570Z,19.13
2023-04-16T07:20:35.168Z,19.55
2023-04-16T07:23:03.176Z,19.83
2023-04-16T07:25:29.684Z,19.30
2023-04-16T07:27:56.436Z,20.25
2023-04-16T07:30:23.029Z,20.52
2023-04-16T07:32:50.965Z,18.55
2023-04-16T07:35:17.644Z,20.65
2023-04-16T07:37:44.156Z,19.30
2023-04-16T07:40:12.580Z,20.73
2023-04-16T07:42:39.174Z,19.38
2023-04-16T07:45:06.813Z,19.17
2023-04-16T07:47:33.419Z,20.05
2023-04-16T07:49:59.950Z,20.23
2023-04-16T07:52:26.580Z,21.02
2023-04-16T07:54:53.309Z,20.30
2023-04-16T07:57:21.259Z,21.13
2023-04-16T07:59:47.797Z,20.50
2023-04-16T08:02:16.161Z,19.93
2023-04-16T08:04:43.964Z,20.20
2023-04-16T08:07:10.679Z,20.33
2023-04-16T08:09:47.480Z,19.90
2023-04-16T08:12:14.030Z,20.50
2023-04-16T08:14:42.061Z,20.27
2023-04-16T08:17:08.549Z,20.00
2023-04-16T08:19:35.078Z,20.02
2023-04-16T08:22:01.683Z,19.77
2023-04-16T08:24:28.238Z,21.10
2023-04-16T08:26:56.995Z,21.37
2023-04-16T08:29:26.903Z,21.95
2023-04-16T08:31:56.266Z,19.65
2023-04-16T08:34:22.936Z,19.95
2023-04-16T08:36:49.616Z,20.35
2023-04-16T08:39:16.214Z,19.67
2023-04-16T08:41:45.575Z,19.80
2023-04-16T08:44:19.491Z,20.55
2023-04-16T08:46:46.806Z,19.25
2023-04-16T08:49:17.283Z,19.60
2023-04-16T08:51:49.579Z,18.40
2023-04-16T08:54:31.819Z,19.95
2023-04-16T08:56:59.111Z,18.30
2023-04-16T08:59:26.417Z,17.55
2023-04-16T09:01:56.551Z,16.95
2023-04-16T09:04:26.649Z,15.87
2023-04-16T09:06:55.056Z,15.13
2023-04-16T09:09:22.071Z,14.90
2023-04-16T09:11:51.291Z,13.70
2023-04-16T09:14:18.014Z,14.80
2023-04-16T09:16:45.638Z,14.00
2023-04-16T09:19:12.464Z,13.32
2023-04-16T09:21:41.569Z,13.68
2023-04-16T09:24:08.596Z,14.07
2023-04-16T09:26:35.494Z,13.52
2023-04-16T09:29:02.267Z,13.63
2023-04-16T09:31:28.921Z,14.40
2023-04-16T09:34:03.007Z,14.18
2023-04-16T09:36:30.052Z,14.82
2023-04-16T09:38:58.885Z,14.23
2023-04-16T09:41:26.908Z,13.90
2023-04-16T09:43:57.174Z,14.13
2023-04-16T09:46:24.848Z,15.25
2023-04-16T09:48:51.654Z,13.57
2023-04-16T09:51:18.274Z,13.93
2023-04-16T09:53:44.858Z,12.37
2023-04-16T09:56:13.198Z,13.90
2023-04-16T09:58:39.745Z,13.82
2023-04-16T10:01:08.785Z,13.77
2023-04-16T10:03:37.262Z,14.38
2023-04-16T10:06:15.397Z,12.60
2023-04-16T10:08:43.868Z,13.85
2023-04-16T10:11:12.113Z,13.55
2023-04-16T10:13:38.816Z,13.10
2023-04-16T10:16:07.001Z,13.45
2023-04-16T10:18:35.114Z,14.40
2023-04-16T10:21:02.449Z,14.50
2023-04-16T10:23:29.666Z,14.93
2023-04-16T10:25:59.001Z,13.52
2023-04-16T10:28:27.434Z,13.80
2023-04-16T10:30:56.119Z,14.97
2023-04-16T10:33:25.805Z,15.30
2023-04-16T10:36:04.979Z,16.10
2023-04-16T10:38:33.756Z,15.30
2023-04-16T10:41:02.460Z,16.00
2023-04-16T10:43:30.662Z,14.87
2023-04-16T10:45:57.275Z,16.27
2023-04-16T10:48:24.350Z,15.95
2023-04-16T10:50:55.424Z,16.08
2023-04-16T10:53:24.172Z,15.85
2023-04-16T10:56:12.380Z,17.37
2023-04-16T10:58:40.505Z,18.52
2023-04-16T11:01:07.908Z,16.52
2023-04-16T11:03:34.709Z,15.00
2023-04-16T11:06:11.969Z,15.68
2023-04-16T11:08:51.053Z,15.73
2023-04-16T11:11:20.946Z,15.20
2023-04-16T11:13:49.044Z,14.55
2023-04-16T11:16:16.779Z,14.73
2023-04-16T11:18:51.704Z,14.35
2023-04-16T11:21:19.526Z,13.40
2023-04-16T11:23:51.293Z,14.10
2023-04-16T11:26:25.294Z,14.32
2023-04-16T11:28:56.410Z,13.68
2023-04-16T11:31:23.685Z,14.43
2023-04-16T11:33:50.514Z,13.17
2023-04-16T11:36:17.270Z,13.15
2023-04-16T11:38:44.152Z,13.38
2023-04-16T11:41:11.379Z,14.15
2023-04-16T11:43:37.922Z,13.38
2023-04-16T11:46:16.571Z,14.80
2023-04-16T11:48:52.531Z,13.20
2023-04-16T11:51:19.457Z,14.30
2023-04-16T11:53:53.260Z,12.60
2023-04-16T11:56:27.016Z,13.80
2023-04-16T11:59:09.048Z,12.97
2023-04-16T12:01:37.954Z,12.57
2023-04-16T12:04:04.968Z,12.52
2023-04-16T12:06:31.966Z,12.93
2023-04-16T12:08:58.567Z,14.15
2023-04-16T12:11:38.125Z,13.23
2023-04-16T12:14:08.246Z,12.80
2023-04-16T12:16:35.895Z,13.02
2023-04-16T12:19:05.474Z,14.15
2023-04-16T12:21:42.085Z,13.45
2023-04-16T12:24:10.228Z,12.57
2023-04-16T12:26:41.215Z,13.38
2023-04-16T12:29:19.614Z,13.02
2023-04-16T12:31:46.543Z,13.07
2023-04-16T12:34:14.796Z,12.85
2023-04-16T12:36:42.017Z,13.30
2023-04-16T12:39:08.912Z,12.82
2023-04-16T12:41:37.800Z,13.75
2023-04-16T12:44:06.157Z,13.32
2023-04-16T12:46:32.820Z,14.15
2023-04-16T12:48:59.360Z,14.03
2023-04-16T12:51:27.558Z,13.95
2023-04-16T12:53:55.335Z,12.95
2023-04-16T12:56:21.952Z,12.95
2023-04-16T12:58:48.516Z,13.75
2023-04-16T13:01:15.108Z,13.77
2023-04-16T13:03:41.936Z,13.68
2023-04-16T13:06:08.575Z,13.63
2023-04-16T13:08:36.887Z,14.10
2023-04-16T13:11:03.475Z,13.40
2023-04-16T13:13:29.996Z,13.83
2023-04-16T13:15:56.722Z,15.02
2023-04-16T13:18:24.962Z,15.95
2023-04-16T13:20:51.504Z,17.40
2023-04-16T13:23:18.052Z,14.70
2023-04-16T13:25:45.937Z,14.03
2023-04-16T13:28:12.762Z,14.27
2023-04-16T13:30:39.373Z,14.13
2023-04-16T13:33:06.142Z,14.40
2023-04-16T13:35:32.734Z,14.00
2023-04-16T13:37:59.301Z,13.73
2023-04-16T13:40:26.001Z,14.18
2023-04-16T13:42:53.902Z,15.02
2023-04-16T13:45:20.462Z,14.45
2023-04-16T13:47:47.045Z,15.05
2023-04-16T13:50:13.602Z,15.17
2023-04-16T13:52:40.191Z,14.60
2023-04-16T13:55:07.248Z,15.38
2023-04-16T13:57:33.767Z,15.25
2023-04-16T14:00:02.621Z,14.50
2023-04-16T14:02:29.319Z,14.33
2023-04-16T14:04:55.911Z,14.57
2023-04-16T14:07:22.505Z,14.98
2023-04-16T14:09:49.073Z,15.25
2023-04-16T14:12:15.729Z,14.77
2023-04-16T14:14:42.257Z,14.33
2023-04-16T14:17:10.286Z,15.10
2023-04-16T14:19:37.007Z,15.52
2023-04-16T14:22:03.588Z,14.65
2023-04-16T14:24:30.257Z,15.77
2023-04-16T14:26:56.819Z,16.07
2023-04-16T14:29:23.405Z,16.08
2023-04-16T14:31:49.978Z,16.92
2023-04-16T14:34:17.947Z,15.95
2023-04-16T14:36:44.554Z,16.10
2023-04-16T14:39:11.391Z,15.43
2023-04-16T14:41:38.090Z,16.60
2023-04-16T14:44:05.024Z,17.08
2023-04-16T14:46:31.652Z,17.48
2023-04-16T14:48:58.228Z,17.35
2023-04-16T14:51:26.465Z,16.77
2023-04-16T14:53:53.034Z,16.88
2023-04-16T14:56:38.051Z,16.25
2023-04-16T14:59:04.577Z,17.25
2023-04-16T15:01:31.325Z,16.98
2023-04-16T15:03:59.239Z,16.63
2023-04-16T15:06:28.687Z,16.98
2023-04-16T15:08:55.358Z,16.83
2023-04-16T15:11:21.886Z,16.75
2023-04-16T15:13:48.429Z,17.55
2023-04-16T15:16:15.046Z,18.20
2023-04-16T15:18:41.687Z,17.50
2023-04-16T15:21:09.496Z,17.90
2023-04-16T15:23:38.474Z,17.23
2023-04-16T15:26:05.031Z,18.27
2023-04-16T15:28:31.579Z,17.70
2023-04-16T15:30:58.344Z,17.75
2023-04-16T15:33:25.015Z,17.08
2023-04-16T15:35:51.705Z,17.63
2023-04-16T15:38:18.812Z,17.08
2023-04-16T15:40:46.749Z,17.83
2023-04-16T15:43:15.369Z,17.38
2023-04-16T15:45:41.936Z,17.73
2023-04-16T15:48:08.525Z,16.52
2023-04-16T15:50:35.251Z,15.82
2023-04-16T15:53:01.806Z,14.47
2023-04-16T15:55:28.532Z,13.73
2023-04-16T15:57:56.636Z,14.10
2023-04-16T16:00:23.153Z,12.50
2023-04-16T16:02:49.805Z,11.95
2023-04-16T16:05:16.640Z,12.13
2023-04-16T16:07:43.441Z,13.82
2023-04-16T16:10:10.824Z,13.30
2023-04-16T16:12:37.413Z,12.48
2023-04-16T16:15:06.672Z,12.75
2023-04-16T16:17:33.552Z,12.70
2023-04-16T16:20:00.205Z,12.57
2023-04-16T16:22:26.780Z,13.18
2023-04-16T16:24:56.227Z,13.23
2023-04-16T16:27:22.902Z,12.55
2023-04-16T16:29:49.544Z,12.93
2023-04-16T16:32:17.406Z,13.43
2023-04-16T16:34:44.005Z,12.52
2023-04-16T16:37:10.731Z,12.43
2023-04-16T16:39:38.687Z,12.20
2023-04-16T16:42:05.648Z,11.63
2023-04-16T16:44:32.403Z,11.20
2023-04-16T16:46:59.059Z,11.75
2023-04-16T16:49:27.012Z,11.88
2023-04-16T16:51:53.563Z,11.90
2023-04-16T16:54:20.095Z,11.70
2023-04-16T16:56:46.624Z,12.05
2023-04-16T16:59:13.519Z,12.10
2023-04-16T17:01:40.223Z,12.27
2023-04-16T17:04:07.155Z,11.77
2023-04-16T17:06:35.121Z,12.27
2023-04-16T17:09:01.968Z,13.25
2023-04-16T17:11:28.608Z,12.77
2023-04-16T17:13:55.213Z,12.25
2023-04-16T17:16:21.758Z,13.77
2023-04-16T17:18:48.293Z,15.30
2023-04-16T17:21:16.566Z,13.25
2023-04-16T17:23:44.851Z,14.15
2023-04-16T17:26:11.408Z,11.88
2023-04-16T17:28:38.167Z,12.45
2023-04-16T17:31:06.664Z,11.40
2023-04-16T17:33:33.195Z,12.30
2023-04-16T17:35:59.812Z,15.93
2023-04-16T17:38:26.425Z,12.88
2023-04-16T17:40:54.295Z,13.30
2023-04-16T17:43:20.875Z,12.67
2023-04-16T17:45:47.429Z,12.77
2023-04-16T17:48:14.069Z,11.65
2023-04-16T17:50:40.652Z,12.02
2023-04-16T17:53:07.368Z,11.45
2023-04-16T17:55:34.031Z,11.47
2023-04-16T17:58:01.988Z,10.82
2023-04-16T18:00:28.565Z,11.52
2023-04-16T18:02:55.433Z,13.13
2023-04-16T18:05:22.476Z,11.02
2023-04-16T18:07:48.997Z,10.87
2023-04-16T18:10:15.570Z,11.75
2023-04-16T18:12:42.118Z,11.38
2023-04-16T18:15:10.940Z,12.10
2023-04-16T18:17:37.750Z,15.80
2023-04-16T18:20:05.076Z,14.13
2023-04-16T18:22:31.634Z,13.30
2023-04-16T18:24:58.295Z,12.40
2023-04-16T18:27:25.066Z,12.88
2023-04-16T18:29:54.737Z,11.52
2023-04-16T18:32:23.390Z,11.07
2023-04-16T18:34:50.259Z,10.60
2023-04-16T18:37:16.807Z,12.38
2023-04-16T18:39:44.460Z,15.63
2023-04-16T18:42:10.984Z,12.48
2023-04-16T18:44:37.550Z,12.90
2023-04-16T18:47:04.268Z,16.58
2023-04-16T18:49:32.260Z,12.10
2023-04-16T18:51:58.798Z,13.30
2023-04-16T18:54:25.552Z,12.18
2023-04-16T18:56:52.070Z,12.63
2023-04-16T18:59:18.675Z,14.23
2023-04-16T19:01:45.269Z,12.40
2023-04-16T19:04:11.878Z,11.90
2023-04-16T19:06:39.918Z,13.02
2023-04-16T19:09:06.419Z,12.90
2023-04-16T19:11:33.215Z,13.80
2023-04-16T19:13:59.953Z,12.30
2023-04-16T19:16:26.678Z,12.93
2023-04-16T19:18:53.249Z,13.18
2023-04-16T19:21:19.953Z,12.77
2023-04-16T19:23:47.901Z,12.27
2023-04-16T19:26:14.525Z,12.95
2023-04-16T19:28:41.091Z,13.02
2023-04-16T19:31:08.197Z,12.65
2023-04-16T19:33:35.144Z,12.63
2023-04-16T19:36:01.906Z,13.10
2023-04-16T19:38:28.690Z,13.60
2023-04-16T19:40:56.616Z,13.40
2023-04-16T19:43:23.272Z,15.32
2023-04-16T19:45:50.150Z,14.20
2023-04-16T19:48:16.781Z,14.00
2023-04-16T19:50:43.629Z,18.05
2023-04-16T19:53:10.992Z,21.08
2023-04-16T19:55:39.203Z,14.80
2023-04-16T19:58:07.390Z,13.53
2023-04-16T20:00:35.758Z,13.73
2023-04-16T20:03:03.086Z,14.93
2023-04-16T20:05:29.904Z,14.43
2023-04-16T20:07:56.973Z,15.93
2023-04-16T20:10:24.083Z,16.50
2023-04-16T20:12:51.094Z,16.27
2023-04-16T20:15:19.414Z,16.65
2023-04-16T20:17:46.311Z,16.25
2023-04-16T20:20:12.928Z,17.33
2023-04-16T20:22:40.262Z,18.23
2023-04-16T20:25:08.047Z,17.50
2023-04-16T20:27:35.986Z,17.48
2023-04-16T20:30:03.111Z,17.20
2023-04-16T20:32:31.064Z,17.20
2023-04-16T20:34:57.703Z,18.23
2023-04-16T20:37:24.301Z,18.58
2023-04-16T20:39:50.990Z,19.27
2023-04-16T20:42:17.531Z,18.38
2023-04-16T20:44:44.111Z,18.30
2023-04-16T20:47:11.535Z,17.13
2023-04-16T20:49:39.454Z,17.00
2023-04-16T20:52:06.226Z,17.27
2023-04-16T20:54:32.815Z,17.15
2023-04-16T20:56:59.435Z,17.15
2023-04-16T20:59:26.049Z,17.43
2023-04-16T21:01:52.731Z,17.90
2023-04-16T21:04:19.522Z,17.52
2023-04-16T21:06:47.686Z,16.83
2023-04-16T21:09:14.526Z,16.63
2023-04-16T21:11:41.230Z,16.67
2023-04-16T21:14:07.943Z,15.98
2023-04-16T21:16:34.590Z,17.92
2023-04-16T21:19:01.129Z,18.40
2023-04-16T21:21:27.857Z,17.50
2023-04-16T21:23:55.926Z,17.30
2023-04-16T21:26:22.559Z,17.35
2023-04-16T21:28:49.099Z,17.48
2023-04-16T21:31:15.862Z,17.10
2023-04-16T21:33:42.613Z,18.80
2023-04-16T21:36:09.211Z,18.27
2023-04-16T21:38:35.986Z,17.70
2023-04-16T21:41:04.080Z,17.88
2023-04-16T21:43:30.667Z,16.35
2023-04-16T21:45:57.654Z,18.33
2023-04-16T21:48:24.615Z,17.67
2023-04-16T21:50:55.094Z,17.90
2023-04-16T21:53:21.682Z,18.25
2023-04-16T21:55:49.417Z,17.63
2023-04-16T21:58:17.286Z,17.85
2023-04-16T22:00:43.901Z,16.80
2023-04-16T22:03:10.642Z,16.83
2023-04-16T22:05:37.305Z,17.85
2023-04-16T22:08:17.086Z,19.27
2023-04-16T22:10:50.277Z,17.50
2023-04-16T22:13:18.237Z,18.17
2023-04-16T22:15:44.838Z,19.10
2023-04-16T22:18:11.597Z,19.15
2023-04-16T22:20:38.973Z,18.60
2023-04-16T22:23:06.060Z,18.85
2023-04-16T22:25:32.781Z,19.43
2023-04-16T22:27:59.581Z,19.05
2023-04-16T22:30:27.477Z,19.42
2023-04-16T22:32:54.102Z,19.92
2023-04-16T22:35:20.655Z,19.65
2023-04-16T22:37:47.368Z,19.80
2023-04-16T22:40:13.910Z,19.30
2023-04-16T22:42:40.442Z,19.00
2023-04-16T22:45:07.562Z,19.23
2023-04-16T22:47:35.621Z,20.50
2023-04-16T22:50:02.347Z,20.53
2023-04-16T22:52:28.943Z,20.23
2023-04-16T22:54:55.488Z,20.35
2023-04-16T22:57:22.037Z,20.35
2023-04-16T22:59:48.584Z,20.40
2023-04-16T23:02:15.203Z,19.23
2023-04-16T23:04:43.141Z,19.88
2023-04-16T23:07:09.673Z,21.00
2023-04-16T23:09:36.205Z,20.58
2023-04-16T23:12:02.959Z,20.70
2023-04-16T23:14:29.609Z,20.50
2023-04-16T23:16:56.127Z,19.95
2023-04-16T23:19:22.830Z,21.77
2023-04-16T23:21:50.701Z,20.92
2023-04-16T23:24:17.308Z,21.65
2023-04-16T23:26:43.802Z,20.10
2023-04-16T23:29:10.613Z,21.08
2023-04-16T23:31:37.485Z,20.77
2023-04-16T23:34:04.131Z,20.40
2023-04-16T23:36:30.646Z,21.35
2023-04-16T23:38:58.705Z,19.90
2023-04-16T23:41:25.213Z,20.90
2023-04-16T23:43:51.846Z,20.23
2023-04-16T23:46:18.481Z,21.38
2023-04-16T23:48:45.098Z,19.83
2023-04-16T23:51:11.716Z,21.03
2023-04-16T23:53:38.512Z,20.42
2023-04-16T23:56:09.280Z,19.65
2023-04-16T23:58:35.896Z,20.70
